Lac-Aux-Sables, Canada
Current Conditions -  °F | °C
As of 12:00 AM on Wednesday 22 Oct 2014 (Local Time) from CYRQ Reporting Station
Overcast Overcast  
Wind Chill: 36°   Ceiling: 5000
Heat Index: 43°   Visibility: 9mi
Dew Point: 32°   Wind: 13mph
Humidity: 66%   Direction: 40°NE
Pressure: 30.25"   Gusts: 18mph
Location:  46.87°N, 72.38°W
Report Text: CYRQ 220400Z AUTO 04011G16KT 9SM OVC050 06/M00 A3025 RMK SLP244
Loading
Personal Weather Stations






























Interactive Weather Map
Tropical Storm Tracking
New forecast layout! Learn more

10-Day Weather Forecast

Advertisements
Track Severe Weather on mobile